sensor_id;sensor_type;location;lat;lon;timestamp;temperature;humidity
19930;DHT22;10127;47.780;9.606;2023-01-04T00:01:16;8.50;99.90
19930;DHT22;10127;47.780;9.606;2023-01-04T00:03:42;8.50;99.90
19930;DHT22;10127;47.780;9.606;2023-01-04T00:06:11;8.40;99.90
19930;DHT22;10127;47.780;9.606;2023-01-04T00:08:37;8.40;99.90
19930;DHT22;10127;47.780;9.606;2023-01-04T00:11:05;8.40;99.90
19930;DHT22;10127;47.780;9.606;2023-01-04T00:13:31;8.40;99.90
19930;DHT22;10127;47.780;9.606;2023-01-04T00:15:58;8.40;99.90
19930;DHT22;10127;47.780;9.606;2023-01-04T00:18:24;8.40;99.90
19930;DHT22;10127;47.780;9.606;2023-01-04T00:20:49;8.40;99.90
19930;DHT22;10127;47.780;9.606;2023-01-04T00:23:15;8.40;99.90
19930;DHT22;10127;47.780;9.606;2023-01-04T00:25:40;8.30;99.90
19930;DHT22;10127;47.780;9.606;2023-01-04T00:28:06;8.20;99.90
19930;DHT22;10127;47.780;9.606;2023-01-04T00:30:32;8.30;99.90
19930;DHT22;10127;47.780;9.606;2023-01-04T00:32:57;8.30;99.90
19930;DHT22;10127;47.780;9.606;2023-01-04T00:35:23;8.30;99.90
19930;DHT22;10127;47.780;9.606;2023-01-04T00:37:49;8.30;99.90
19930;DHT22;10127;47.780;9.606;2023-01-04T00:40:15;8.30;99.90
19930;DHT22;10127;47.780;9.606;2023-01-04T00:42:40;8.30;99.90
19930;DHT22;10127;47.780;9.606;2023-01-04T00:45:06;8.30;99.90
19930;DHT22;10127;47.780;9.606;2023-01-04T00:47:32;8.40;99.90
19930;DHT22;10127;47.780;9.606;2023-01-04T00:49:57;8.40;99.90
19930;DHT22;10127;47.780;9.606;2023-01-04T00:52:23;8.50;99.90
19930;DHT22;10127;47.780;9.606;2023-01-04T00:54:49;8.50;99.90
19930;DHT22;10127;47.780;9.606;2023-01-04T00:57:14;8.40;99.90
19930;DHT22;10127;47.780;9.606;2023-01-04T00:59:40;8.30;99.90
19930;DHT22;10127;47.780;9.606;2023-01-04T01:02:06;8.30;99.90
19930;DHT22;10127;47.780;9.606;2023-01-04T01:04:31;8.30;99.90
19930;DHT22;10127;47.780;9.606;2023-01-04T01:06:57;8.40;99.90
19930;DHT22;10127;47.780;9.606;2023-01-04T01:09:23;8.40;99.90
19930;DHT22;10127;47.780;9.606;2023-01-04T01:11:50;8.40;99.90
19930;DHT22;10127;47.780;9.606;2023-01-04T01:14:19;8.40;99.90
19930;DHT22;10127;47.780;9.606;2023-01-04T01:16:45;8.40;99.90
19930;DHT22;10127;47.780;9.606;2023-01-04T01:19:11;8.40;99.90
19930;DHT22;10127;47.780;9.606;2023-01-04T01:21:37;8.40;99.90
19930;DHT22;10127;47.780;9.606;2023-01-04T01:24:03;8.40;99.90
19930;DHT22;10127;47.780;9.606;2023-01-04T01:26:29;8.50;99.90
19930;DHT22;10127;47.780;9.606;2023-01-04T01:28:55;8.50;99.90
19930;DHT22;10127;47.780;9.606;2023-01-04T01:31:23;8.40;99.90
19930;DHT22;10127;47.780;9.606;2023-01-04T01:33:50;8.40;99.90
19930;DHT22;10127;47.780;9.606;2023-01-04T01:36:17;8.40;99.90
19930;DHT22;10127;47.780;9.606;2023-01-04T01:38:43;8.30;99.90
19930;DHT22;10127;47.780;9.606;2023-01-04T01:41:23;8.30;99.90
19930;DHT22;10127;47.780;9.606;2023-01-04T01:43:57;8.30;99.90
19930;DHT22;10127;47.780;9.606;2023-01-04T01:48:51;8.30;99.90
19930;DHT22;10127;47.780;9.606;2023-01-04T01:51:18;8.30;99.90
19930;DHT22;10127;47.780;9.606;2023-01-04T01:53:47;8.30;99.90
19930;DHT22;10127;47.780;9.606;2023-01-04T01:56:15;8.20;99.90
19930;DHT22;10127;47.780;9.606;2023-01-04T01:58:46;8.30;99.90
19930;DHT22;10127;47.780;9.606;2023-01-04T02:01:13;8.40;99.90
19930;DHT22;10127;47.780;9.606;2023-01-04T02:03:41;8.30;99.90
19930;DHT22;10127;47.780;9.606;2023-01-04T02:06:10;8.30;99.90
19930;DHT22;10127;47.780;9.606;2023-01-04T02:08:38;8.40;99.90
19930;DHT22;10127;47.780;9.606;2023-01-04T02:11:04;8.40;99.90
19930;DHT22;10127;47.780;9.606;2023-01-04T02:13:31;8.40;99.90
19930;DHT22;10127;47.780;9.606;2023-01-04T02:28:06;8.20;99.90
19930;DHT22;10127;47.780;9.606;2023-01-04T02:39:01;8.20;99.90
19930;DHT22;10127;47.780;9.606;2023-01-04T02:41:53;8.30;99.90
19930;DHT22;10127;47.780;9.606;2023-01-04T02:44:31;8.30;99.90
19930;DHT22;10127;47.780;9.606;2023-01-04T03:11:11;8.30;99.90
19930;DHT22;10127;47.780;9.606;2023-01-04T03:14:23;8.20;99.90
19930;DHT22;10127;47.780;9.606;2023-01-04T03:16:51;8.30;99.90
19930;DHT22;10127;47.780;9.606;2023-01-04T03:19:18;8.20;99.90
19930;DHT22;10127;47.780;9.606;2023-01-04T03:22:05;8.20;99.90
19930;DHT22;10127;47.780;9.606;2023-01-04T03:24:52;8.20;99.90
19930;DHT22;10127;47.780;9.606;2023-01-04T03:27:39;8.20;99.90
19930;DHT22;10127;47.780;9.606;2023-01-04T03:30:27;8.20;99.90
19930;DHT22;10127;47.780;9.606;2023-01-04T03:33:14;8.20;99.90
19930;DHT22;10127;47.780;9.606;2023-01-04T03:36:36;8.10;99.90
19930;DHT22;10127;47.780;9.606;2023-01-04T03:39:08;8.10;99.90
19930;DHT22;10127;47.780;9.606;2023-01-04T03:42:27;8.10;99.90
19930;DHT22;10127;47.780;9.606;2023-01-04T03:45:24;8.00;99.90
19930;DHT22;10127;47.780;9.606;2023-01-04T03:48:29;8.00;99.90
19930;DHT22;10127;47.780;9.606;2023-01-04T03:51:12;8.00;99.90
19930;DHT22;10127;47.780;9.606;2023-01-04T03:53:58;8.00;99.90
19930;DHT22;10127;47.780;9.606;2023-01-04T03:56:25;7.90;99.90
19930;DHT22;10127;47.780;9.606;2023-01-04T03:58:53;7.90;99.90
19930;DHT22;10127;47.780;9.606;2023-01-04T04:01:20;7.90;99.90
19930;DHT22;10127;47.780;9.606;2023-01-04T04:03:45;7.90;99.90
19930;DHT22;10127;47.780;9.606;2023-01-04T04:06:30;7.90;99.90
19930;DHT22;10127;47.780;9.606;2023-01-04T04:09:14;7.90;99.90
19930;DHT22;10127;47.780;9.606;2023-01-04T04:11:39;7.90;99.90
19930;DHT22;10127;47.780;9.606;2023-01-04T04:14:05;7.90;99.90
19930;DHT22;10127;47.780;9.606;2023-01-04T04:16:30;7.90;99.90
19930;DHT22;10127;47.780;9.606;2023-01-04T04:18:56;7.90;99.90
19930;DHT22;10127;47.780;9.606;2023-01-04T04:21:22;7.90;99.90
19930;DHT22;10127;47.780;9.606;2023-01-04T04:23:48;7.90;99.90
19930;DHT22;10127;47.780;9.606;2023-01-04T04:26:14;7.80;99.90
19930;DHT22;10127;47.780;9.606;2023-01-04T04:28:41;7.60;99.90
19930;DHT22;10127;47.780;9.606;2023-01-04T04:31:07;7.60;99.90
19930;DHT22;10127;47.780;9.606;2023-01-04T04:33:32;7.60;99.90
19930;DHT22;10127;47.780;9.606;2023-01-04T04:35:58;7.60;99.90
19930;DHT22;10127;47.780;9.606;2023-01-04T04:38:23;7.50;99.90
19930;DHT22;10127;47.780;9.606;2023-01-04T04:40:49;7.60;99.90
19930;DHT22;10127;47.780;9.606;2023-01-04T04:43:34;7.60;99.90
19930;DHT22;10127;47.780;9.606;2023-01-04T04:46:00;7.70;99.90
19930;DHT22;10127;47.780;9.606;2023-01-04T04:48:26;7.80;99.90
19930;DHT22;10127;47.780;9.606;2023-01-04T04:50:51;7.80;99.90
19930;DHT22;10127;47.780;9.606;2023-01-04T04:53:17;7.80;99.90
19930;DHT22;10127;47.780;9.606;2023-01-04T04:55:42;7.80;99.90
19930;DHT22;10127;47.780;9.606;2023-01-04T04:58:08;7.70;99.90
19930;DHT22;10127;47.780;9.606;2023-01-04T05:00:34;7.70;99.90
19930;DHT22;10127;47.780;9.606;2023-01-04T05:03:00;7.70;99.90
19930;DHT22;10127;47.780;9.606;2023-01-04T05:05:26;7.70;99.90
19930;DHT22;10127;47.780;9.606;2023-01-04T05:07:51;7.70;99.90
19930;DHT22;10127;47.780;9.606;2023-01-04T05:10:17;7.60;99.90
19930;DHT22;10127;47.780;9.606;2023-01-04T05:12:42;7.60;99.90
19930;DHT22;10127;47.780;9.606;2023-01-04T05:15:29;7.60;99.90
19930;DHT22;10127;47.780;9.606;2023-01-04T05:17:56;7.60;99.90
19930;DHT22;10127;47.780;9.606;2023-01-04T05:20:22;7.60;99.90
19930;DHT22;10127;47.780;9.606;2023-01-04T05:22:48;7.60;99.90
19930;DHT22;10127;47.780;9.606;2023-01-04T05:25:14;7.60;99.90
19930;DHT22;10127;47.780;9.606;2023-01-04T05:27:40;7.50;99.90
19930;DHT22;10127;47.780;9.606;2023-01-04T05:30:05;7.60;99.90
19930;DHT22;10127;47.780;9.606;2023-01-04T05:32:50;7.60;99.90
19930;DHT22;10127;47.780;9.606;2023-01-04T05:35:16;7.50;99.90
19930;DHT22;10127;47.780;9.606;2023-01-04T05:37:41;7.50;99.90
19930;DHT22;10127;47.780;9.606;2023-01-04T05:40:07;7.50;99.90
19930;DHT22;10127;47.780;9.606;2023-01-04T05:42:33;7.50;99.90
19930;DHT22;10127;47.780;9.606;2023-01-04T05:44:59;7.50;99.90
19930;DHT22;10127;47.780;9.606;2023-01-04T05:47:25;7.50;99.90
19930;DHT22;10127;47.780;9.606;2023-01-04T05:49:53;7.50;99.90
19930;DHT22;10127;47.780;9.606;2023-01-04T05:52:19;7.50;99.90
19930;DHT22;10127;47.780;9.606;2023-01-04T05:54:45;7.50;99.90
19930;DHT22;10127;47.780;9.606;2023-01-04T05:57:11;7.40;99.90
19930;DHT22;10127;47.780;9.606;2023-01-04T05:59:37;7.50;99.90
19930;DHT22;10127;47.780;9.606;2023-01-04T06:02:03;7.40;99.90
19930;DHT22;10127;47.780;9.606;2023-01-04T06:04:29;7.50;99.90
19930;DHT22;10127;47.780;9.606;2023-01-04T06:06:54;7.50;99.90
19930;DHT22;10127;47.780;9.606;2023-01-04T06:09:20;7.50;99.90
19930;DHT22;10127;47.780;9.606;2023-01-04T06:11:46;7.50;99.90
19930;DHT22;10127;47.780;9.606;2023-01-04T06:14:11;7.60;99.90
19930;DHT22;10127;47.780;9.606;2023-01-04T06:16:37;7.60;99.90
19930;DHT22;10127;47.780;9.606;2023-01-04T06:19:03;7.50;99.90
19930;DHT22;10127;47.780;9.606;2023-01-04T06:21:28;7.40;99.90
19930;DHT22;10127;47.780;9.606;2023-01-04T06:23:54;7.30;99.90
19930;DHT22;10127;47.780;9.606;2023-01-04T06:26:20;7.40;99.90
19930;DHT22;10127;47.780;9.606;2023-01-04T06:28:45;7.50;99.90
19930;DHT22;10127;47.780;9.606;2023-01-04T06:31:12;7.50;99.90
19930;DHT22;10127;47.780;9.606;2023-01-04T06:33:38;7.50;99.90
19930;DHT22;10127;47.780;9.606;2023-01-04T06:36:04;7.50;99.90
19930;DHT22;10127;47.780;9.606;2023-01-04T06:38:30;7.50;99.90
19930;DHT22;10127;47.780;9.606;2023-01-04T06:40:56;7.50;99.90
19930;DHT22;10127;47.780;9.606;2023-01-04T06:43:22;7.50;99.90
19930;DHT22;10127;47.780;9.606;2023-01-04T06:45:47;7.50;99.90
19930;DHT22;10127;47.780;9.606;2023-01-04T06:48:13;7.40;99.90
19930;DHT22;10127;47.780;9.606;2023-01-04T06:50:38;7.30;99.90
19930;DHT22;10127;47.780;9.606;2023-01-04T06:53:04;7.40;99.90
19930;DHT22;10127;47.780;9.606;2023-01-04T06:55:30;7.30;99.90
19930;DHT22;10127;47.780;9.606;2023-01-04T06:57:56;7.30;99.90
19930;DHT22;10127;47.780;9.606;2023-01-04T07:00:22;7.30;99.90
19930;DHT22;10127;47.780;9.606;2023-01-04T07:02:48;7.30;99.90
19930;DHT22;10127;47.780;9.606;2023-01-04T07:05:13;7.30;99.90
19930;DHT22;10127;47.780;9.606;2023-01-04T07:07:39;7.40;99.90
19930;DHT22;10127;47.780;9.606;2023-01-04T07:10:05;7.40;99.90
19930;DHT22;10127;47.780;9.606;2023-01-04T07:12:31;7.40;99.90
19930;DHT22;10127;47.780;9.606;2023-01-04T07:14:57;7.30;99.90
19930;DHT22;10127;47.780;9.606;2023-01-04T07:17:22;7.30;99.90
19930;DHT22;10127;47.780;9.606;2023-01-04T07:19:48;7.40;99.90
19930;DHT22;10127;47.780;9.606;2023-01-04T07:22:14;7.40;99.90
19930;DHT22;10127;47.780;9.606;2023-01-04T07:24:39;7.30;99.90
19930;DHT22;10127;47.780;9.606;2023-01-04T07:27:05;7.30;99.90
19930;DHT22;10127;47.780;9.606;2023-01-04T07:29:31;7.30;99.90
19930;DHT22;10127;47.780;9.606;2023-01-04T07:31:56;7.40;99.90
19930;DHT22;10127;47.780;9.606;2023-01-04T07:34:24;7.40;99.90
19930;DHT22;10127;47.780;9.606;2023-01-04T07:36:49;7.40;99.90
19930;DHT22;10127;47.780;9.606;2023-01-04T07:39:16;7.40;99.90
19930;DHT22;10127;47.780;9.606;2023-01-04T07:41:42;7.40;99.90
19930;DHT22;10127;47.780;9.606;2023-01-04T07:44:09;7.30;99.90
19930;DHT22;10127;47.780;9.606;2023-01-04T07:46:35;7.30;99.90
19930;DHT22;10127;47.780;9.606;2023-01-04T07:49:01;7.30;99.90
19930;DHT22;10127;47.780;9.606;2023-01-04T07:51:26;7.50;99.90
19930;DHT22;10127;47.780;9.606;2023-01-04T07:53:53;7.40;99.90
19930;DHT22;10127;47.780;9.606;2023-01-04T07:56:19;7.30;99.90
19930;DHT22;10127;47.780;9.606;2023-01-04T07:58:44;7.30;99.90
19930;DHT22;10127;47.780;9.606;2023-01-04T08:01:12;7.20;99.90
19930;DHT22;10127;47.780;9.606;2023-01-04T08:03:38;7.20;99.90
19930;DHT22;10127;47.780;9.606;2023-01-04T08:06:06;7.30;99.90
19930;DHT22;10127;47.780;9.606;2023-01-04T08:08:32;7.30;99.90
19930;DHT22;10127;47.780;9.606;2023-01-04T08:11:02;7.30;99.90
19930;DHT22;10127;47.780;9.606;2023-01-04T08:13:28;7.30;99.90
19930;DHT22;10127;47.780;9.606;2023-01-04T08:15:54;7.30;99.90
19930;DHT22;10127;47.780;9.606;2023-01-04T08:18:20;7.40;99.90
19930;DHT22;10127;47.780;9.606;2023-01-04T08:20:45;7.40;99.90
19930;DHT22;10127;47.780;9.606;2023-01-04T08:23:11;7.40;99.90
19930;DHT22;10127;47.780;9.606;2023-01-04T08:25:36;7.50;99.90
19930;DHT22;10127;47.780;9.606;2023-01-04T08:28:02;7.50;99.90
19930;DHT22;10127;47.780;9.606;2023-01-04T08:30:28;7.60;99.90
19930;DHT22;10127;47.780;9.606;2023-01-04T08:32:53;7.70;99.90
19930;DHT22;10127;47.780;9.606;2023-01-04T08:35:19;7.60;99.90
19930;DHT22;10127;47.780;9.606;2023-01-04T08:37:45;7.60;99.90
19930;DHT22;10127;47.780;9.606;2023-01-04T08:40:11;7.70;99.90
19930;DHT22;10127;47.780;9.606;2023-01-04T08:42:37;7.70;99.90
19930;DHT22;10127;47.780;9.606;2023-01-04T08:45:03;7.70;99.90
19930;DHT22;10127;47.780;9.606;2023-01-04T08:47:30;7.60;99.90
19930;DHT22;10127;47.780;9.606;2023-01-04T08:49:56;7.70;99.90
19930;DHT22;10127;47.780;9.606;2023-01-04T08:52:22;7.70;99.90
19930;DHT22;10127;47.780;9.606;2023-01-04T08:54:48;7.70;99.90
19930;DHT22;10127;47.780;9.606;2023-01-04T08:57:15;7.90;99.90
19930;DHT22;10127;47.780;9.606;2023-01-04T08:59:40;8.00;99.90
19930;DHT22;10127;47.780;9.606;2023-01-04T09:02:18;7.90;99.90
19930;DHT22;10127;47.780;9.606;2023-01-04T09:04:45;7.80;99.90
19930;DHT22;10127;47.780;9.606;2023-01-04T09:07:10;7.80;99.90
19930;DHT22;10127;47.780;9.606;2023-01-04T09:09:36;7.90;99.90
19930;DHT22;10127;47.780;9.606;2023-01-04T09:12:01;8.00;99.90
19930;DHT22;10127;47.780;9.606;2023-01-04T09:14:27;8.00;99.90
19930;DHT22;10127;47.780;9.606;2023-01-04T09:16:52;8.00;99.90
19930;DHT22;10127;47.780;9.606;2023-01-04T09:19:18;8.00;99.90
19930;DHT22;10127;47.780;9.606;2023-01-04T09:21:44;8.10;99.90
19930;DHT22;10127;47.780;9.606;2023-01-04T09:24:09;8.00;99.90
19930;DHT22;10127;47.780;9.606;2023-01-04T09:26:35;8.10;99.90
19930;DHT22;10127;47.780;9.606;2023-01-04T09:29:00;8.10;99.90
19930;DHT22;10127;47.780;9.606;2023-01-04T09:31:28;8.10;99.90
19930;DHT22;10127;47.780;9.606;2023-01-04T09:33:54;8.10;99.90
19930;DHT22;10127;47.780;9.606;2023-01-04T09:36:20;8.20;99.90
19930;DHT22;10127;47.780;9.606;2023-01-04T09:38:46;8.10;99.90
19930;DHT22;10127;47.780;9.606;2023-01-04T09:41:15;8.00;99.90
19930;DHT22;10127;47.780;9.606;2023-01-04T09:43:55;8.00;99.90
19930;DHT22;10127;47.780;9.606;2023-01-04T09:52:02;8.10;99.90
19930;DHT22;10127;47.780;9.606;2023-01-04T09:54:43;8.20;99.90
19930;DHT22;10127;47.780;9.606;2023-01-04T09:57:18;8.30;99.90
19930;DHT22;10127;47.780;9.606;2023-01-04T09:59:46;8.30;99.90
19930;DHT22;10127;47.780;9.606;2023-01-04T10:02:20;8.30;99.90
19930;DHT22;10127;47.780;9.606;2023-01-04T10:04:51;8.40;99.90
19930;DHT22;10127;47.780;9.606;2023-01-04T10:07:28;8.50;99.90
19930;DHT22;10127;47.780;9.606;2023-01-04T10:09:55;8.60;99.90
19930;DHT22;10127;47.780;9.606;2023-01-04T10:15:33;8.70;99.90
19930;DHT22;10127;47.780;9.606;2023-01-04T10:18:20;8.70;99.90
19930;DHT22;10127;47.780;9.606;2023-01-04T10:20:53;8.70;99.90
19930;DHT22;10127;47.780;9.606;2023-01-04T10:31:33;8.90;99.90
19930;DHT22;10127;47.780;9.606;2023-01-04T10:34:27;8.90;99.90
19930;DHT22;10127;47.780;9.606;2023-01-04T10:36:57;9.00;99.90
19930;DHT22;10127;47.780;9.606;2023-01-04T10:39:28;9.10;99.90
19930;DHT22;10127;47.780;9.606;2023-01-04T10:41:56;9.10;99.90
19930;DHT22;10127;47.780;9.606;2023-01-04T10:44:33;9.00;99.90
19930;DHT22;10127;47.780;9.606;2023-01-04T10:47:22;9.10;99.90
19930;DHT22;10127;47.780;9.606;2023-01-04T10:49:56;9.20;99.90
19930;DHT22;10127;47.780;9.606;2023-01-04T10:52:46;9.10;99.90
19930;DHT22;10127;47.780;9.606;2023-01-04T10:55:28;9.10;99.90
19930;DHT22;10127;47.780;9.606;2023-01-04T11:00:53;9.00;99.90
19930;DHT22;10127;47.780;9.606;2023-01-04T11:03:30;9.10;99.90
19930;DHT22;10127;47.780;9.606;2023-01-04T11:08:42;9.20;99.90
19930;DHT22;10127;47.780;9.606;2023-01-04T11:11:13;9.20;99.90
19930;DHT22;10127;47.780;9.606;2023-01-04T11:13:40;9.20;99.90
19930;DHT22;10127;47.780;9.606;2023-01-04T11:16:06;9.30;99.90
19930;DHT22;10127;47.780;9.606;2023-01-04T11:18:35;9.40;99.90
19930;DHT22;10127;47.780;9.606;2023-01-04T11:21:05;9.30;99.90
19930;DHT22;10127;47.780;9.606;2023-01-04T11:23:32;9.30;99.90
19930;DHT22;10127;47.780;9.606;2023-01-04T11:26:08;9.30;99.90
19930;DHT22;10127;47.780;9.606;2023-01-04T11:34:03;9.30;99.90
19930;DHT22;10127;47.780;9.606;2023-01-04T11:39:06;9.60;99.90
19930;DHT22;10127;47.780;9.606;2023-01-04T11:41:59;9.70;99.90
19930;DHT22;10127;47.780;9.606;2023-01-04T11:44:26;9.80;99.90
19930;DHT22;10127;47.780;9.606;2023-01-04T11:47:17;9.70;99.90
19930;DHT22;10127;47.780;9.606;2023-01-04T11:49:46;9.60;99.90
19930;DHT22;10127;47.780;9.606;2023-01-04T11:52:32;9.70;99.90
19930;DHT22;10127;47.780;9.606;2023-01-04T11:55:29;9.70;99.90
19930;DHT22;10127;47.780;9.606;2023-01-04T11:58:11;9.70;99.90
19930;DHT22;10127;47.780;9.606;2023-01-04T12:00:38;9.70;99.90
19930;DHT22;10127;47.780;9.606;2023-01-04T12:03:16;9.70;99.90
19930;DHT22;10127;47.780;9.606;2023-01-04T12:05:42;9.70;99.90
19930;DHT22;10127;47.780;9.606;2023-01-04T12:08:35;9.70;99.90
19930;DHT22;10127;47.780;9.606;2023-01-04T12:11:03;9.70;99.90
19930;DHT22;10127;47.780;9.606;2023-01-04T12:13:31;9.60;99.90
19930;DHT22;10127;47.780;9.606;2023-01-04T12:18:43;9.50;99.90
19930;DHT22;10127;47.780;9.606;2023-01-04T12:21:22;9.50;99.90
19930;DHT22;10127;47.780;9.606;2023-01-04T12:23:49;9.60;99.90
19930;DHT22;10127;47.780;9.606;2023-01-04T12:26:16;9.60;99.90
19930;DHT22;10127;47.780;9.606;2023-01-04T12:28:44;9.60;99.90
19930;DHT22;10127;47.780;9.606;2023-01-04T12:33:49;9.80;99.90
19930;DHT22;10127;47.780;9.606;2023-01-04T12:36:16;9.80;99.90
19930;DHT22;10127;47.780;9.606;2023-01-04T12:44:54;9.80;99.90
19930;DHT22;10127;47.780;9.606;2023-01-04T12:46:50;9.90;99.90
19930;DHT22;10127;47.780;9.606;2023-01-04T12:54:45;10.10;99.90
19930;DHT22;10127;47.780;9.606;2023-01-04T13:10:26;10.10;99.90
19930;DHT22;10127;47.780;9.606;2023-01-04T13:12:55;10.10;99.90
19930;DHT22;10127;47.780;9.606;2023-01-04T13:18:49;10.10;99.90
19930;DHT22;10127;47.780;9.606;2023-01-04T13:21:32;10.20;99.90
19930;DHT22;10127;47.780;9.606;2023-01-04T13:24:05;10.20;99.90
19930;DHT22;10127;47.780;9.606;2023-01-04T13:26:39;10.30;99.90
19930;DHT22;10127;47.780;9.606;2023-01-04T13:34:21;10.30;99.90
19930;DHT22;10127;47.780;9.606;2023-01-04T13:39:51;10.20;99.90
19930;DHT22;10127;47.780;9.606;2023-01-04T13:42:35;10.20;99.90
19930;DHT22;10127;47.780;9.606;2023-01-04T13:47:51;10.20;99.90
19930;DHT22;10127;47.780;9.606;2023-01-04T13:50:36;10.30;99.90
19930;DHT22;10127;47.780;9.606;2023-01-04T13:53:03;10.40;99.90
19930;DHT22;10127;47.780;9.606;2023-01-04T13:55:31;10.30;99.90
19930;DHT22;10127;47.780;9.606;2023-01-04T13:58:02;10.30;99.90
19930;DHT22;10127;47.780;9.606;2023-01-04T14:00:34;10.20;99.90
19930;DHT22;10127;47.780;9.606;2023-01-04T14:05:37;10.20;99.90
19930;DHT22;10127;47.780;9.606;2023-01-04T14:08:09;10.30;99.90
19930;DHT22;10127;47.780;9.606;2023-01-04T14:10:36;10.20;99.90
19930;DHT22;10127;47.780;9.606;2023-01-04T14:13:06;10.20;99.90
19930;DHT22;10127;47.780;9.606;2023-01-04T14:15:34;10.10;99.90
19930;DHT22;10127;47.780;9.606;2023-01-04T14:17:59;10.10;99.90
19930;DHT22;10127;47.780;9.606;2023-01-04T14:22:52;10.10;99.90
19930;DHT22;10127;47.780;9.606;2023-01-04T14:25:40;10.10;99.90
19930;DHT22;10127;47.780;9.606;2023-01-04T14:28:38;10.10;99.90
19930;DHT22;10127;47.780;9.606;2023-01-04T14:33:41;10.00;99.90
19930;DHT22;10127;47.780;9.606;2023-01-04T14:41:21;9.90;99.90
19930;DHT22;10127;47.780;9.606;2023-01-04T14:46:28;9.80;99.90
19930;DHT22;10127;47.780;9.606;2023-01-04T14:48:54;9.80;99.90
19930;DHT22;10127;47.780;9.606;2023-01-04T14:51:45;9.80;99.90
19930;DHT22;10127;47.780;9.606;2023-01-04T14:54:13;9.80;99.90
19930;DHT22;10127;47.780;9.606;2023-01-04T14:56:39;9.80;99.90
19930;DHT22;10127;47.780;9.606;2023-01-04T14:59:05;9.80;99.90
19930;DHT22;10127;47.780;9.606;2023-01-04T15:01:31;9.80;99.90
19930;DHT22;10127;47.780;9.606;2023-01-04T15:03:57;9.70;99.90
19930;DHT22;10127;47.780;9.606;2023-01-04T15:06:22;9.70;99.90
19930;DHT22;10127;47.780;9.606;2023-01-04T15:08:48;9.70;99.90
19930;DHT22;10127;47.780;9.606;2023-01-04T15:11:14;9.70;99.90
19930;DHT22;10127;47.780;9.606;2023-01-04T15:13:40;9.70;99.90
19930;DHT22;10127;47.780;9.606;2023-01-04T15:16:08;9.70;99.90
19930;DHT22;10127;47.780;9.606;2023-01-04T15:18:34;9.70;99.90
19930;DHT22;10127;47.780;9.606;2023-01-04T15:21:01;9.70;99.90
19930;DHT22;10127;47.780;9.606;2023-01-04T15:23:27;9.60;99.90
19930;DHT22;10127;47.780;9.606;2023-01-04T15:25:52;9.60;99.90
19930;DHT22;10127;47.780;9.606;2023-01-04T15:28:18;9.60;99.90
19930;DHT22;10127;47.780;9.606;2023-01-04T15:30:46;9.60;99.90
19930;DHT22;10127;47.780;9.606;2023-01-04T15:33:11;9.60;99.90
19930;DHT22;10127;47.780;9.606;2023-01-04T15:35:37;9.50;99.90
19930;DHT22;10127;47.780;9.606;2023-01-04T15:38:02;9.60;99.90
19930;DHT22;10127;47.780;9.606;2023-01-04T15:40:28;9.60;99.90
19930;DHT22;10127;47.780;9.606;2023-01-04T15:42:54;9.50;99.90
19930;DHT22;10127;47.780;9.606;2023-01-04T15:45:43;9.60;99.90
19930;DHT22;10127;47.780;9.606;2023-01-04T15:48:10;9.60;99.90
19930;DHT22;10127;47.780;9.606;2023-01-04T15:50:38;9.70;99.90
19930;DHT22;10127;47.780;9.606;2023-01-04T15:53:07;9.90;99.90
19930;DHT22;10127;47.780;9.606;2023-01-04T15:55:35;10.10;99.90
19930;DHT22;10127;47.780;9.606;2023-01-04T15:58:01;10.10;99.90
19930;DHT22;10127;47.780;9.606;2023-01-04T16:00:27;10.20;99.90
19930;DHT22;10127;47.780;9.606;2023-01-04T16:02:53;10.20;99.90
19930;DHT22;10127;47.780;9.606;2023-01-04T16:05:18;10.20;99.90
19930;DHT22;10127;47.780;9.606;2023-01-04T16:07:45;10.20;99.90
19930;DHT22;10127;47.780;9.606;2023-01-04T16:10:11;10.20;99.90
19930;DHT22;10127;47.780;9.606;2023-01-04T16:12:37;10.20;99.90
19930;DHT22;10127;47.780;9.606;2023-01-04T16:15:14;10.20;99.90
19930;DHT22;10127;47.780;9.606;2023-01-04T16:17:40;10.20;99.90
19930;DHT22;10127;47.780;9.606;2023-01-04T16:20:07;10.20;99.90
19930;DHT22;10127;47.780;9.606;2023-01-04T16:22:33;10.20;99.90
19930;DHT22;10127;47.780;9.606;2023-01-04T16:24:58;10.20;99.90
19930;DHT22;10127;47.780;9.606;2023-01-04T16:27:24;10.20;99.90
19930;DHT22;10127;47.780;9.606;2023-01-04T16:29:50;10.20;99.90
19930;DHT22;10127;47.780;9.606;2023-01-04T16:32:16;10.20;99.90
19930;DHT22;10127;47.780;9.606;2023-01-04T16:34:42;10.20;99.90
19930;DHT22;10127;47.780;9.606;2023-01-04T16:37:07;10.20;99.90
19930;DHT22;10127;47.780;9.606;2023-01-04T16:39:33;10.20;99.90
19930;DHT22;10127;47.780;9.606;2023-01-04T16:41:58;10.20;99.90
19930;DHT22;10127;47.780;9.606;2023-01-04T16:44:24;10.20;99.90
19930;DHT22;10127;47.780;9.606;2023-01-04T16:46:50;10.10;99.90
19930;DHT22;10127;47.780;9.606;2023-01-04T16:49:16;10.10;99.90
19930;DHT22;10127;47.780;9.606;2023-01-04T16:51:44;10.10;99.90
19930;DHT22;10127;47.780;9.606;2023-01-04T16:54:14;10.10;99.90
19930;DHT22;10127;47.780;9.606;2023-01-04T16:56:40;10.00;99.90
19930;DHT22;10127;47.780;9.606;2023-01-04T16:59:10;10.10;99.90
19930;DHT22;10127;47.780;9.606;2023-01-04T17:01:37;10.00;99.90
19930;DHT22;10127;47.780;9.606;2023-01-04T17:04:05;10.00;99.90
19930;DHT22;10127;47.780;9.606;2023-01-04T17:06:35;10.00;99.90
19930;DHT22;10127;47.780;9.606;2023-01-04T17:09:02;10.00;99.90
19930;DHT22;10127;47.780;9.606;2023-01-04T17:11:33;9.90;99.90
19930;DHT22;10127;47.780;9.606;2023-01-04T17:13:59;9.90;99.90
19930;DHT22;10127;47.780;9.606;2023-01-04T17:16:25;9.90;99.90
19930;DHT22;10127;47.780;9.606;2023-01-04T17:18:52;9.90;99.90
19930;DHT22;10127;47.780;9.606;2023-01-04T17:21:26;9.90;99.90
19930;DHT22;10127;47.780;9.606;2023-01-04T17:23:54;9.90;99.90
19930;DHT22;10127;47.780;9.606;2023-01-04T17:26:31;9.90;99.90
19930;DHT22;10127;47.780;9.606;2023-01-04T17:28:58;9.90;99.90
19930;DHT22;10127;47.780;9.606;2023-01-04T17:31:26;9.80;99.90
19930;DHT22;10127;47.780;9.606;2023-01-04T17:33:52;9.80;99.90
19930;DHT22;10127;47.780;9.606;2023-01-04T17:36:19;9.80;99.90
19930;DHT22;10127;47.780;9.606;2023-01-04T17:38:45;9.80;99.90
19930;DHT22;10127;47.780;9.606;2023-01-04T17:41:21;9.80;99.90
19930;DHT22;10127;47.780;9.606;2023-01-04T17:43:49;9.80;99.90
19930;DHT22;10127;47.780;9.606;2023-01-04T17:46:18;9.80;99.90
19930;DHT22;10127;47.780;9.606;2023-01-04T17:48:44;9.80;99.90
19930;DHT22;10127;47.780;9.606;2023-01-04T17:51:12;9.80;99.90
19930;DHT22;10127;47.780;9.606;2023-01-04T17:53:38;9.80;99.90
19930;DHT22;10127;47.780;9.606;2023-01-04T17:56:10;9.70;99.90
19930;DHT22;10127;47.780;9.606;2023-01-04T17:58:37;9.60;99.90
19930;DHT22;10127;47.780;9.606;2023-01-04T18:01:20;9.50;99.90
19930;DHT22;10127;47.780;9.606;2023-01-04T18:03:51;9.60;99.90
19930;DHT22;10127;47.780;9.606;2023-01-04T18:06:20;9.50;99.90
19930;DHT22;10127;47.780;9.606;2023-01-04T18:08:47;9.40;99.90
19930;DHT22;10127;47.780;9.606;2023-01-04T18:11:13;9.40;99.90
19930;DHT22;10127;47.780;9.606;2023-01-04T18:13:42;9.30;99.90
19930;DHT22;10127;47.780;9.606;2023-01-04T18:16:15;9.30;99.90